臺北終端管制區 - 桃園北區雷達席

METAR RCTP 120300Z 09013KT 9999 FEW020 27/15 Q1017 NOSIG RMK A3005=

站台狀態:Offline
最後更新:2019-11-12 11:15:01